createdAt,value
2022-08-30T00:02:37.380Z,99084.69
2022-08-30T00:05:23.683Z,99089.41
2022-08-30T00:08:09.389Z,99097.97
2022-08-30T00:10:54.502Z,99091.75
2022-08-30T00:13:41.553Z,99089.97
2022-08-30T00:16:26.460Z,99098.88
2022-08-30T00:19:11.436Z,99098.38
2022-08-30T00:21:56.223Z,99096.63
2022-08-30T00:24:41.351Z,99102.13
2022-08-30T00:27:27.670Z,99098.78
2022-08-30T00:30:14.679Z,99103.25
2022-08-30T00:32:59.952Z,99102.78
2022-08-30T00:35:44.888Z,99102.81
2022-08-30T00:38:30.184Z,99104.19
2022-08-30T00:41:15.446Z,99107.06
2022-08-30T00:44:01.001Z,99113.91
2022-08-30T00:46:46.272Z,99119.16
2022-08-30T00:49:34.117Z,99117.34
2022-08-30T00:52:21.791Z,99115.25
2022-08-30T00:55:08.013Z,99120.50
2022-08-30T00:57:58.574Z,99131.22
2022-08-30T01:00:44.336Z,99122.38
2022-08-30T01:03:30.477Z,99121.09
2022-08-30T01:06:15.908Z,99123.19
2022-08-30T01:09:03.471Z,99123.47
2022-08-30T01:11:49.098Z,99123.47
2022-08-30T01:14:34.463Z,99118.31
2022-08-30T01:17:21.282Z,99118.03
2022-08-30T01:20:30.290Z,99118.03
2022-08-30T01:23:19.707Z,99115.19
2022-08-30T01:26:06.775Z,99115.69
2022-08-30T01:28:56.470Z,99116.50
2022-08-30T01:31:41.671Z,99109.97
2022-08-30T01:34:41.258Z,99112.84
2022-08-30T01:37:29.577Z,99106.63
2022-08-30T01:40:15.200Z,99105.59
2022-08-30T01:43:00.284Z,99100.94
2022-08-30T01:45:45.224Z,99113.69
2022-08-30T01:48:31.240Z,99114.22
2022-08-30T01:51:17.639Z,99116.31
2022-08-30T01:54:03.249Z,99119.22
2022-08-30T01:56:48.739Z,99111.16
2022-08-30T01:59:34.060Z,99111.97
2022-08-30T02:02:25.435Z,99113.25
2022-08-30T02:05:11.168Z,99108.31
2022-08-30T02:07:56.027Z,99118.72
2022-08-30T02:10:41.461Z,99112.47
2022-08-30T02:13:27.368Z,99117.41
2022-08-30T02:16:15.540Z,99120.53
2022-08-30T02:19:00.379Z,99121.31
2022-08-30T02:21:45.423Z,99115.84
2022-08-30T02:24:30.658Z,99113.53
2022-08-30T02:27:15.956Z,99121.03
2022-08-30T02:30:01.239Z,99110.66
2022-08-30T02:32:46.762Z,99111.94
2022-08-30T02:35:32.074Z,99112.97
2022-08-30T02:38:19.934Z,99116.34
2022-08-30T02:41:05.594Z,99115.06
2022-08-30T02:43:51.000Z,99116.13
2022-08-30T02:46:36.949Z,99120.00
2022-08-30T02:49:36.986Z,99125.97
2022-08-30T02:52:22.617Z,99125.22
2022-08-30T02:55:12.744Z,99126.50
2022-08-30T02:57:58.459Z,99131.94
2022-08-30T03:00:43.604Z,99132.72
2022-08-30T03:03:28.650Z,99138.94
2022-08-30T03:06:14.540Z,99143.38
2022-08-30T03:08:59.657Z,99139.22
2022-08-30T03:11:44.976Z,99147.50
2022-08-30T03:14:30.887Z,99143.34
2022-08-30T03:17:16.739Z,99142.59
2022-08-30T03:20:01.914Z,99141.25
2022-08-30T03:22:46.804Z,99143.59
2022-08-30T03:25:33.259Z,99141.50
2022-08-30T03:28:18.232Z,99144.34
2022-08-30T03:31:03.190Z,99147.72
2022-08-30T03:33:48.376Z,99144.59
2022-08-30T03:36:33.062Z,99139.91
2022-08-30T03:39:18.658Z,99147.72
2022-08-30T03:42:04.230Z,99147.72
2022-08-30T03:44:49.323Z,99148.22
2022-08-30T03:47:34.515Z,99151.38
2022-08-30T03:50:19.545Z,99158.91
2022-08-30T03:53:04.357Z,99166.19
2022-08-30T03:55:49.321Z,99163.38
2022-08-30T03:58:37.619Z,99160.00
2022-08-30T04:01:22.589Z,99160.25
2022-08-30T04:04:08.713Z,99160.56
2022-08-30T04:06:53.859Z,99158.44
2022-08-30T04:09:39.486Z,99149.31
2022-08-30T04:12:24.453Z,99156.56
2022-08-30T04:15:10.736Z,99162.00
2022-08-30T04:17:56.051Z,99157.28
2022-08-30T04:20:41.082Z,99155.16
2022-08-30T04:23:27.960Z,99151.47
2022-08-30T04:26:13.445Z,99147.00
2022-08-30T04:28:58.841Z,99154.50
2022-08-30T04:31:45.084Z,99148.47
2022-08-30T04:34:30.280Z,99151.22
2022-08-30T04:37:16.246Z,99152.47
2022-08-30T04:40:01.601Z,99152.13
2022-08-30T04:42:47.111Z,99146.81
2022-08-30T04:45:31.895Z,99155.88
2022-08-30T04:48:17.277Z,99151.88
2022-08-30T04:51:08.371Z,99161.72
2022-08-30T04:53:53.381Z,99162.34
2022-08-30T04:56:38.662Z,99165.63
2022-08-30T04:59:23.733Z,99169.91
2022-08-30T05:02:11.136Z,99166.69
2022-08-30T05:05:16.914Z,99168.56
2022-08-30T05:08:02.093Z,99169.31
2022-08-30T05:10:51.299Z,99174.22
2022-08-30T05:13:37.133Z,99178.47
2022-08-30T05:16:22.024Z,99176.13
2022-08-30T05:19:07.530Z,99179.41
2022-08-30T05:21:52.277Z,99172.81
2022-08-30T05:24:37.390Z,99172.34
2022-08-30T05:27:22.479Z,99169.22
2022-08-30T05:30:08.169Z,99182.94
2022-08-30T05:32:53.779Z,99176.63
2022-08-30T05:35:39.883Z,99181.50
2022-08-30T05:38:24.921Z,99181.06
2022-08-30T05:41:10.680Z,99179.25
2022-08-30T05:43:58.915Z,99176.28
2022-08-30T05:46:45.684Z,99181.72
2022-08-30T05:49:30.225Z,99182.34
2022-08-30T05:52:17.956Z,99179.50
2022-08-30T05:55:03.730Z,99181.44
2022-08-30T05:57:48.603Z,99173.25
2022-08-30T06:00:36.099Z,99184.47
2022-08-30T06:03:22.987Z,99185.88
2022-08-30T06:06:07.832Z,99183.66
2022-08-30T06:08:53.317Z,99182.00
2022-08-30T06:11:39.121Z,99186.59
2022-08-30T06:14:24.613Z,99185.25
2022-08-30T06:17:10.212Z,99184.38
2022-08-30T06:19:55.108Z,99187.84
2022-08-30T06:22:40.415Z,99188.56
2022-08-30T06:25:25.378Z,99198.53
2022-08-30T06:28:12.064Z,99198.63
2022-08-30T06:30:57.818Z,99187.03
2022-08-30T06:33:44.167Z,99193.91
2022-08-30T06:36:30.894Z,99197.13
2022-08-30T06:39:16.039Z,99192.50
2022-08-30T06:42:00.940Z,99200.31
2022-08-30T06:44:48.737Z,99201.34
2022-08-30T06:47:36.442Z,99203.81
2022-08-30T06:50:21.900Z,99205.91
2022-08-30T06:53:09.958Z,99213.19
2022-08-30T06:56:00.568Z,99192.81
2022-08-30T06:58:46.102Z,99204.25
2022-08-30T07:01:31.153Z,99201.91
2022-08-30T07:04:16.342Z,99209.06
2022-08-30T07:07:02.850Z,99216.69
2022-08-30T07:09:48.242Z,99216.47
2022-08-30T07:12:33.454Z,99213.06
2022-08-30T07:15:22.274Z,99221.28
2022-08-30T07:18:25.762Z,99221.25
2022-08-30T07:21:13.364Z,99220.50
2022-08-30T07:23:59.043Z,99226.81
2022-08-30T07:26:49.131Z,99226.81
2022-08-30T07:29:34.437Z,99224.69
2022-08-30T07:32:19.388Z,99221.91
2022-08-30T07:35:05.247Z,99227.88
2022-08-30T07:37:50.376Z,99233.28
2022-08-30T07:40:37.899Z,99223.25
2022-08-30T07:43:22.993Z,99232.50
2022-08-30T07:46:07.910Z,99241.81
2022-08-30T07:48:54.610Z,99232.25
2022-08-30T07:51:40.378Z,99234.09
2022-08-30T07:54:25.770Z,99241.84
2022-08-30T07:57:10.780Z,99238.88
2022-08-30T07:59:55.922Z,99237.97
2022-08-30T08:02:42.083Z,99242.72
2022-08-30T08:05:27.753Z,99243.75
2022-08-30T08:08:13.487Z,99242.78
2022-08-30T08:11:05.926Z,99250.72
2022-08-30T08:13:54.056Z,99252.91
2022-08-30T08:16:41.689Z,99251.34
2022-08-30T08:19:26.697Z,99251.88
2022-08-30T08:22:27.026Z,99256.16
2022-08-30T08:25:11.922Z,99257.81
2022-08-30T08:27:57.594Z,99250.22
2022-08-30T08:30:47.603Z,99248.78
2022-08-30T08:33:33.307Z,99241.94
2022-08-30T08:36:18.423Z,99252.81
2022-08-30T08:39:06.433Z,99241.16
2022-08-30T08:42:00.689Z,99245.78
2022-08-30T08:44:54.723Z,99240.97
2022-08-30T08:48:04.172Z,99238.66
2022-08-30T08:51:07.799Z,99239.28
2022-08-30T08:54:21.000Z,99243.22
2022-08-30T08:57:06.075Z,99239.06
2022-08-30T08:59:53.702Z,99246.19
2022-08-30T09:03:04.167Z,99243.59
2022-08-30T09:05:50.212Z,99244.31
2022-08-30T09:08:36.464Z,99239.81
2022-08-30T09:11:26.358Z,99234.91
2022-08-30T09:14:19.162Z,99226.16
2022-08-30T09:17:10.567Z,99225.69
2022-08-30T09:19:58.311Z,99239.19
2022-08-30T09:22:43.370Z,99229.31
2022-08-30T09:25:35.916Z,99229.41
2022-08-30T09:28:30.994Z,99238.44
2022-08-30T09:31:25.854Z,99231.47
2022-08-30T09:34:17.813Z,99229.66
2022-08-30T09:37:02.940Z,99236.56
2022-08-30T09:39:50.140Z,99232.00
2022-08-30T09:42:35.175Z,99230.72
2022-08-30T09:45:29.520Z,99250.63
2022-08-30T09:48:26.666Z,99224.25
2022-08-30T09:51:12.369Z,99223.13
2022-08-30T09:54:20.246Z,99217.63
2022-08-30T09:57:16.128Z,99219.00
2022-08-30T10:00:19.045Z,99217.16
2022-08-30T10:06:36.342Z,99211.28
2022-08-30T10:09:30.424Z,99209.66
2022-08-30T10:12:39.249Z,99208.91
2022-08-30T10:15:38.473Z,99208.31
2022-08-30T10:18:32.839Z,99217.75
2022-08-30T10:21:20.168Z,99205.06
2022-08-30T10:24:21.059Z,99202.59
2022-08-30T10:27:16.599Z,99203.31
2022-08-30T10:30:10.080Z,99203.00
2022-08-30T10:33:06.201Z,99202.41
2022-08-30T10:35:56.061Z,99206.56
2022-08-30T10:38:47.379Z,99198.44
2022-08-30T10:41:45.570Z,99201.22
2022-08-30T10:44:36.939Z,99194.56
2022-08-30T10:47:36.790Z,99203.19
2022-08-30T10:50:29.102Z,99200.81
2022-08-30T10:53:40.416Z,99196.56
2022-08-30T10:56:29.050Z,99206.03
2022-08-30T10:59:17.551Z,99199.75
2022-08-30T11:02:27.233Z,99200.78
2022-08-30T11:05:41.996Z,99198.66
2022-08-30T11:08:48.987Z,99188.50
2022-08-30T11:11:55.229Z,99186.44
2022-08-30T11:14:43.411Z,99176.16
2022-08-30T11:17:30.463Z,99184.22
2022-08-30T11:20:28.195Z,99172.28
2022-08-30T11:23:26.576Z,99171.63
2022-08-30T11:26:32.047Z,99171.78
2022-08-30T11:29:26.344Z,99182.03
2022-08-30T11:32:12.461Z,99173.03
2022-08-30T11:34:59.677Z,99168.13
2022-08-30T11:37:46.744Z,99169.84
2022-08-30T11:40:35.301Z,99176.41
2022-08-30T11:43:48.272Z,99169.81
2022-08-30T11:46:40.933Z,99170.72
2022-08-30T11:49:45.814Z,99160.22
2022-08-30T11:52:41.548Z,99158.56
2022-08-30T11:55:42.585Z,99159.94
2022-08-30T11:58:47.812Z,99163.09
2022-08-30T12:02:02.760Z,99154.03
2022-08-30T12:05:04.587Z,99154.78
2022-08-30T12:08:14.385Z,99154.31
2022-08-30T12:11:08.416Z,99147.72
2022-08-30T12:14:01.954Z,99146.31
2022-08-30T12:17:06.395Z,99145.91
2022-08-30T12:19:52.114Z,99152.13
2022-08-30T12:22:37.319Z,99146.31
2022-08-30T12:25:40.344Z,99144.13
2022-08-30T12:28:32.408Z,99143.56
2022-08-30T12:31:39.259Z,99144.19
2022-08-30T12:34:36.653Z,99140.72
2022-08-30T12:37:55.175Z,99147.69
2022-08-30T12:41:00.878Z,99131.84
2022-08-30T12:43:51.587Z,99144.16
2022-08-30T12:46:37.017Z,99138.03
2022-08-30T12:49:27.852Z,99129.53
2022-08-30T12:52:18.540Z,99136.63
2022-08-30T12:55:33.071Z,99131.84
2022-08-30T12:58:38.772Z,99131.66
2022-08-30T13:01:43.564Z,99135.69
2022-08-30T13:04:30.863Z,99129.78
2022-08-30T13:07:30.759Z,99128.22
2022-08-30T13:10:19.777Z,99130.31
2022-08-30T13:13:08.358Z,99125.78
2022-08-30T13:15:53.794Z,99126.75
2022-08-30T13:18:41.055Z,99120.97
2022-08-30T13:21:34.262Z,99123.38
2022-08-30T13:24:25.650Z,99110.63
2022-08-30T13:27:15.739Z,99114.63
2022-08-30T13:30:31.503Z,99106.88
2022-08-30T13:33:18.696Z,99102.38
2022-08-30T13:36:03.959Z,99102.56
2022-08-30T13:38:54.519Z,99099.75
2022-08-30T13:41:49.490Z,99103.44
2022-08-30T13:44:42.612Z,99098.34
2022-08-30T13:47:32.953Z,99095.31
2022-08-30T13:50:19.737Z,99090.59
2022-08-30T13:53:12.215Z,99097.47
2022-08-30T13:56:02.591Z,99090.19
2022-08-30T13:58:51.628Z,99091.53
2022-08-30T14:02:07.702Z,99085.91
2022-08-30T14:05:03.428Z,99084.56
2022-08-30T14:07:53.548Z,99081.06
2022-08-30T14:10:46.764Z,99081.13
2022-08-30T14:13:32.555Z,99091.75
2022-08-30T14:16:33.070Z,99083.16
2022-08-30T14:19:18.637Z,99082.53
2022-08-30T14:22:03.885Z,99078.56
2022-08-30T14:24:48.474Z,99088.38
2022-08-30T14:27:34.074Z,99078.06
2022-08-30T14:30:20.997Z,99071.25
2022-08-30T14:33:06.022Z,99067.53
2022-08-30T14:35:51.629Z,99068.81
2022-08-30T14:38:36.610Z,99066.41
2022-08-30T14:41:21.716Z,99058.00
2022-08-30T14:44:06.588Z,99055.88
2022-08-30T14:46:52.313Z,99058.13
2022-08-30T14:49:38.438Z,99051.56
2022-08-30T14:52:23.912Z,99049.28
2022-08-30T14:55:11.382Z,99040.06
2022-08-30T14:57:56.518Z,99044.81
2022-08-30T15:00:41.660Z,99041.34
2022-08-30T15:03:26.978Z,99036.81
2022-08-30T15:06:12.008Z,99035.00
2022-08-30T15:08:57.788Z,99038.22
2022-08-30T15:11:43.770Z,99032.44
2022-08-30T15:14:31.133Z,99027.44
2022-08-30T15:17:18.572Z,99030.66
2022-08-30T15:20:07.400Z,99034.13
2022-08-30T15:22:55.951Z,99025.06
2022-08-30T15:25:42.198Z,99026.66
2022-08-30T15:28:27.191Z,99023.38
2022-08-30T15:31:12.506Z,99023.50
2022-08-30T15:33:58.071Z,99018.97
2022-08-30T15:36:44.366Z,99035.22
2022-08-30T15:39:29.176Z,99023.59
2022-08-30T15:42:19.033Z,99034.19
2022-08-30T15:45:06.390Z,99029.84
2022-08-30T15:47:51.425Z,99023.19
2022-08-30T15:50:36.561Z,99029.56
2022-08-30T15:53:21.403Z,99031.13
2022-08-30T15:56:06.495Z,99030.56
2022-08-30T15:58:52.983Z,99026.91
2022-08-30T16:01:38.113Z,99021.59
2022-08-30T16:04:23.098Z,99020.97
2022-08-30T16:07:08.662Z,99020.50
2022-08-30T16:09:53.736Z,99024.41
2022-08-30T16:12:38.332Z,99028.66
2022-08-30T16:15:23.205Z,99025.34
2022-08-30T16:18:08.238Z,99032.81
2022-08-30T16:21:08.537Z,99027.78
2022-08-30T16:23:55.516Z,99024.41
2022-08-30T16:26:42.235Z,99027.53
2022-08-30T16:29:26.991Z,99032.88
2022-08-30T16:32:13.618Z,99021.66
2022-08-30T16:34:58.197Z,99033.84
2022-08-30T16:37:43.317Z,99028.63
2022-08-30T16:40:28.881Z,99026.31
2022-08-30T16:43:15.774Z,99029.22
2022-08-30T16:46:02.607Z,99031.06
2022-08-30T16:48:47.868Z,99035.16
2022-08-30T16:51:34.168Z,99037.34
2022-08-30T16:54:20.411Z,99044.03
2022-08-30T16:57:06.581Z,99031.88
2022-08-30T16:59:52.513Z,99039.63
2022-08-30T17:02:37.466Z,99049.25
2022-08-30T17:05:22.852Z,99040.44
2022-08-30T17:08:09.036Z,99046.72
2022-08-30T17:10:54.337Z,99045.47
2022-08-30T17:13:39.659Z,99056.50
2022-08-30T17:16:27.572Z,99052.25
2022-08-30T17:19:12.972Z,99054.22
2022-08-30T17:21:58.481Z,99063.44
2022-08-30T17:24:43.663Z,99063.41
2022-08-30T17:27:28.579Z,99070.69
2022-08-30T17:30:13.566Z,99064.06
2022-08-30T17:32:59.690Z,99061.44
2022-08-30T17:35:45.678Z,99069.16
2022-08-30T17:38:31.414Z,99074.47
2022-08-30T17:41:16.461Z,99072.97
2022-08-30T17:44:01.526Z,99078.38
2022-08-30T17:46:46.730Z,99076.19
2022-08-30T17:49:32.948Z,99073.94
2022-08-30T17:52:17.984Z,99073.47
2022-08-30T17:55:04.563Z,99070.56
2022-08-30T17:57:50.859Z,99079.19
2022-08-30T18:00:36.083Z,99078.69
2022-08-30T18:03:20.848Z,99081.94
2022-08-30T18:06:06.192Z,99088.34
2022-08-30T18:08:51.122Z,99087.66
2022-08-30T18:11:41.315Z,99093.69
2022-08-30T18:14:26.475Z,99091.34
2022-08-30T18:17:11.135Z,99094.03
2022-08-30T18:19:56.416Z,99102.28
2022-08-30T18:22:42.734Z,99100.78
2022-08-30T18:25:27.627Z,99104.19
2022-08-30T18:28:12.785Z,99097.94
2022-08-30T18:30:57.639Z,99098.31
2022-08-30T18:33:42.804Z,99105.66
2022-08-30T18:36:28.993Z,99103.09
2022-08-30T18:39:14.076Z,99112.25
2022-08-30T18:41:59.149Z,99116.22
2022-08-30T18:44:44.428Z,99121.50
2022-08-30T18:47:29.889Z,99118.94
2022-08-30T18:50:14.744Z,99117.25
2022-08-30T18:53:00.865Z,99121.72
2022-08-30T18:55:45.675Z,99119.47
2022-08-30T18:58:31.078Z,99116.66
2022-08-30T19:01:22.163Z,99122.69
2022-08-30T19:04:07.791Z,99124.06
2022-08-30T19:06:53.185Z,99124.91
2022-08-30T19:09:39.403Z,99122.84
2022-08-30T19:12:25.820Z,99121.31
2022-08-30T19:15:12.713Z,99123.94
2022-08-30T19:17:57.598Z,99130.44
2022-08-30T19:20:43.870Z,99134.81
2022-08-30T19:23:34.056Z,99139.25
2022-08-30T19:26:19.170Z,99134.53
2022-08-30T19:29:07.320Z,99139.75
2022-08-30T19:31:52.361Z,99142.63
2022-08-30T19:34:37.126Z,99144.66
2022-08-30T19:37:22.045Z,99144.72
2022-08-30T19:40:11.715Z,99148.09
2022-08-30T19:42:57.646Z,99149.63
2022-08-30T19:45:42.983Z,99150.16
2022-08-30T19:48:32.333Z,99147.56
2022-08-30T19:51:17.957Z,99145.53
2022-08-30T19:54:04.082Z,99141.19
2022-08-30T19:56:49.653Z,99144.63
2022-08-30T19:59:34.207Z,99145.69
2022-08-30T20:02:20.987Z,99141.34
2022-08-30T20:05:06.330Z,99148.94
2022-08-30T20:07:51.482Z,99145.63
2022-08-30T20:10:36.894Z,99149.56
2022-08-30T20:13:23.698Z,99147.25
2022-08-30T20:16:11.214Z,99148.56
2022-08-30T20:18:55.953Z,99149.38
2022-08-30T20:21:41.580Z,99146.00
2022-08-30T20:24:28.519Z,99149.41
2022-08-30T20:27:13.496Z,99140.59
2022-08-30T20:29:58.651Z,99147.41
2022-08-30T20:32:46.004Z,99154.97
2022-08-30T20:35:31.362Z,99150.06
2022-08-30T20:38:20.658Z,99150.59
2022-08-30T20:41:11.127Z,99153.72
2022-08-30T20:43:57.629Z,99156.31
2022-08-30T20:46:44.857Z,99155.81
2022-08-30T20:49:29.439Z,99156.59
2022-08-30T20:52:16.304Z,99156.63
2022-08-30T20:55:04.295Z,99150.91
2022-08-30T20:57:49.036Z,99157.16
2022-08-30T21:00:34.094Z,99150.91
2022-08-30T21:03:27.482Z,99159.75
2022-08-30T21:06:15.719Z,99155.84
2022-08-30T21:09:01.603Z,99151.16
2022-08-30T21:11:46.898Z,99136.09
2022-08-30T21:14:31.925Z,99148.06
2022-08-30T21:17:17.372Z,99147.81
2022-08-30T21:20:03.434Z,99148.06
2022-08-30T21:22:48.264Z,99153.00
2022-08-30T21:25:33.863Z,99144.16
2022-08-30T21:28:18.662Z,99156.63
2022-08-30T21:31:16.387Z,99148.31
2022-08-30T21:34:01.327Z,99149.09
2022-08-30T21:36:46.255Z,99155.31
2022-08-30T21:39:32.343Z,99148.31
2022-08-30T21:42:17.675Z,99146.72
2022-08-30T21:45:02.391Z,99148.81
2022-08-30T21:47:47.247Z,99145.72
2022-08-30T21:50:32.804Z,99150.91
2022-08-30T21:53:18.404Z,99142.84
2022-08-30T21:56:15.447Z,99148.28
2022-08-30T21:59:05.062Z,99139.72
2022-08-30T22:01:49.735Z,99139.22
2022-08-30T22:04:35.485Z,99134.25
2022-08-30T22:07:20.017Z,99129.06
2022-08-30T22:10:08.857Z,99139.19
2022-08-30T22:12:53.914Z,99133.47
2022-08-30T22:15:38.770Z,99135.03
2022-08-30T22:18:24.390Z,99135.53
2022-08-30T22:21:13.106Z,99131.13
2022-08-30T22:23:58.142Z,99134.22
2022-08-30T22:26:44.949Z,99132.91
2022-08-30T22:29:30.100Z,99135.22
2022-08-30T22:32:14.922Z,99136.75
2022-08-30T22:35:00.923Z,99134.38
2022-08-30T22:37:47.795Z,99133.59
2022-08-30T22:40:45.029Z,99137.50
2022-08-30T22:43:30.340Z,99131.03
2022-08-30T22:46:17.294Z,99132.88
2022-08-30T22:49:05.169Z,99131.03
2022-08-30T22:51:50.031Z,99131.81
2022-08-30T22:54:36.558Z,99130.50
2022-08-30T22:57:21.345Z,99126.59
2022-08-30T23:00:12.171Z,99126.31
2022-08-30T23:02:56.953Z,99124.97
2022-08-30T23:05:41.943Z,99119.25
2022-08-30T23:08:27.274Z,99121.06
2022-08-30T23:11:12.478Z,99120.81
2022-08-30T23:13:57.566Z,99125.19
2022-08-30T23:16:42.691Z,99125.94
2022-08-30T23:19:27.595Z,99118.94
2022-08-30T23:22:13.517Z,99118.72
2022-08-30T23:25:17.607Z,99124.16
2022-08-30T23:28:21.070Z,99115.34
2022-08-30T23:31:33.967Z,99117.13
2022-08-30T23:34:37.424Z,99117.91
2022-08-30T23:37:40.987Z,99121.25
2022-08-30T23:40:44.200Z,99111.59
2022-08-30T23:43:47.700Z,99114.16
2022-08-30T23:46:51.005Z,99112.31
2022-08-30T23:49:54.888Z,99110.44
2022-08-30T23:52:58.349Z,99107.38
2022-08-30T23:56:01.874Z,99112.28
2022-08-30T23:59:04.981Z,99111.25
